Time;durP1;ratioP1;P1;durP2;ratioP2;P2;SDS_P1;SDS_P2;PMS_P1;PMS_P2;Temp;Humidity;BMP_temperature;BMP_pressure;BME280_temperature;BME280_humidity;BME280_pressure;Samples;Min_cycle;Max_cycle;Signal;HPM_P1;HPM_P2
2023/01/15 00:02:17;;;;;;;;;;;;;;;2.36;100.00;100786.44;5565438;32;33010;-71
2023/01/15 00:05:25;;;;;;;;;;;;;;;2.33;100.00;100784.00;5566073;32;34249;-72
2023/01/15 00:08:34;;;;;;;;;;;;;;;2.29;100.00;100793.03;5566143;32;34229;-72
2023/01/15 00:11:41;;;;;;;;;;;;;;;2.07;100.00;100785.81;5566195;32;34691;-72
2023/01/15 00:14:49;;;;;;;;;;;;;;;2.10;100.00;100789.03;5565910;32;34343;-72
2023/01/15 00:17:58;;;;;;;;;;;;;;;2.01;100.00;100789.66;5565328;32;34466;-71
2023/01/15 00:21:07;;;;;;;;;;;;;;;2.14;100.00;100787.88;5565806;32;34642;-73
2023/01/15 00:27:39;;;;;;;;;;;;;;;2.12;100.00;100781.94;5568397;32;33969;-72
2023/01/15 00:30:45;;;;;;;;;;;;;;;2.02;100.00;100770.41;5568666;32;34222;-72
2023/01/15 00:33:51;;;;;;;;;;;;;;;2.06;100.00;100771.88;5554634;32;35122;-71
2023/01/15 00:36:57;;;;;;;;;;;;;;;2.15;100.00;100773.03;5554660;32;33510;-71
2023/01/15 00:40:03;;;;;;;;;;;;;;;2.11;100.00;100774.19;5554644;32;34286;-72
2023/01/15 00:43:11;;;;;;;;;;;;;;;2.07;100.00;100765.72;5554629;32;32707;-73
2023/01/15 00:46:22;;;;;;;;;;;;;;;2.05;100.00;100766.75;5568709;32;34724;-73
2023/01/15 00:49:28;;;;;;;;;;;;;;;2.01;100.00;100754.81;5568417;32;34146;-73
2023/01/15 00:52:32;;;;;;;;;;;;;;;2.04;100.00;100759.81;5568606;32;33973;-73
2023/01/15 00:55:41;;;;;;;;;;;;;;;1.99;100.00;100754.06;5555403;32;34094;-73
2023/01/15 00:58:48;;;;;;;;;;;;;;;2.04;100.00;100762.44;5568436;32;34868;-73
2023/01/15 01:02:00;;;;;;;;;;;;;;;2.06;100.00;100760.56;5555578;32;34753;-72
2023/01/15 01:05:07;;;;;;;;;;;;;;;1.98;100.00;100760.25;5555016;32;34238;-73
2023/01/15 01:08:14;;;;;;;;;;;;;;;1.93;100.00;100750.13;5555182;32;34056;-73
2023/01/15 01:11:25;;;;;;;;;;;;;;;1.92;100.00;100737.12;5568415;32;34256;-73
2023/01/15 01:14:36;;;;;;;;;;;;;;;1.93;100.00;100742.25;5568416;32;34852;-72
2023/01/15 01:17:44;;;;;;;;;;;;;;;1.87;100.00;100742.66;5555044;32;34301;-72
2023/01/15 01:20:54;;;;;;;;;;;;;;;1.78;100.00;100743.28;5568370;32;34234;-72
2023/01/15 01:24:00;;;;;;;;;;;;;;;1.77;100.00;100746.00;5554458;32;33014;-72
2023/01/15 01:27:10;;;;;;;;;;;;;;;1.84;100.00;100745.47;5568289;32;34298;-72
2023/01/15 01:30:18;;;;;;;;;;;;;;;1.78;100.00;100750.31;5541802;32;33510;-71
2023/01/15 01:33:27;;;;;;;;;;;;;;;1.73;100.00;100740.16;5568160;32;34131;-73
2023/01/15 01:36:35;;;;;;;;;;;;;;;1.67;100.00;100724.84;5554547;32;34175;-72
2023/01/15 01:39:43;;;;;;;;;;;;;;;1.72;100.00;100725.37;5568166;32;34704;-73
2023/01/15 01:42:49;;;;;;;;;;;;;;;1.75;100.00;100733.84;5553980;32;33769;-72
2023/01/15 01:45:58;;;;;;;;;;;;;;;1.73;100.00;100722.69;5568086;32;34183;-73
2023/01/15 01:49:10;;;;;;;;;;;;;;;1.79;100.00;100721.44;5554676;32;34221;-71
2023/01/15 01:52:18;;;;;;;;;;;;;;;1.81;100.00;100718.69;5568024;32;34529;-71
2023/01/15 01:55:25;;;;;;;;;;;;;;;1.65;100.00;100716.25;5568017;32;34610;-73
2023/01/15 01:58:35;;;;;;;;;;;;;;;1.56;100.00;100711.66;5568215;32;34241;-71
2023/01/15 02:01:43;;;;;;;;;;;;;;;1.57;100.00;100695.88;5567875;32;34330;-73
2023/01/15 02:04:51;;;;;;;;;;;;;;;1.46;100.00;100695.75;5567956;32;33978;-71
2023/01/15 02:07:58;;;;;;;;;;;;;;;1.55;100.00;100687.28;5540839;32;34763;-72
2023/01/15 02:11:06;;;;;;;;;;;;;;;1.54;100.00;100679.56;5554637;32;34084;-73
2023/01/15 02:14:21;;;;;;;;;;;;;;;1.53;100.00;100685.72;5554321;32;34897;-73
2023/01/15 02:17:32;;;;;;;;;;;;;;;1.63;100.00;100684.16;5567985;32;34562;-72
2023/01/15 02:20:47;;;;;;;;;;;;;;;1.74;100.00;100681.69;5567893;32;34732;-71
2023/01/15 02:24:06;;;;;;;;;;;;;;;1.69;100.00;100665.47;5567794;32;34876;-71
2023/01/15 02:27:22;;;;;;;;;;;;;;;1.59;100.00;100657.41;5567797;32;34618;-71
2023/01/15 02:30:39;;;;;;;;;;;;;;;1.64;100.00;100664.94;5541600;32;34148;-72
2023/01/15 02:33:57;;;;;;;;;;;;;;;1.69;100.00;100673.31;5542297;32;35166;-72
2023/01/15 02:37:12;;;;;;;;;;;;;;;1.68;100.00;100663.78;5567620;32;34347;-72
2023/01/15 02:40:20;;;;;;;;;;;;;;;1.51;100.00;100657.06;5567620;32;34722;-71
2023/01/15 02:43:32;;;;;;;;;;;;;;;1.59;100.00;100657.41;5567341;32;34797;-72
2023/01/15 02:46:41;;;;;;;;;;;;;;;1.56;100.00;100648.91;5567861;32;33860;-72
2023/01/15 02:49:53;;;;;;;;;;;;;;;1.40;100.00;100643.91;5566616;32;34876;-72
2023/01/15 02:53:04;;;;;;;;;;;;;;;1.47;100.00;100641.69;5553991;32;34382;-71
2023/01/15 02:56:14;;;;;;;;;;;;;;;1.47;100.00;100637.28;5567352;32;33908;-73
2023/01/15 02:59:25;;;;;;;;;;;;;;;1.43;100.00;100637.59;5567400;32;34283;-72
2023/01/15 03:02:39;;;;;;;;;;;;;;;1.54;100.00;100637.72;5567352;32;33988;-72
2023/01/15 03:05:56;;;;;;;;;;;;;;;1.49;100.00;100645.88;5553578;32;34985;-72
2023/01/15 03:09:01;;;;;;;;;;;;;;;1.48;100.00;100630.28;5553651;32;34899;-72
2023/01/15 03:12:18;;;;;;;;;;;;;;;1.41;100.00;100626.41;5567099;32;34212;-72
2023/01/15 03:18:56;;;;;;;;;;;;;;;1.41;100.00;100629.03;5567015;32;34312;-72
2023/01/15 03:22:11;;;;;;;;;;;;;;;1.22;100.00;100645.09;5553773;32;35001;-72
2023/01/15 03:25:24;;;;;;;;;;;;;;;1.17;100.00;100627.13;5553383;32;35118;-72
2023/01/15 03:28:34;;;;;;;;;;;;;;;1.03;100.00;100626.34;5552766;32;34494;-73
2023/01/15 03:31:43;;;;;;;;;;;;;;;1.06;100.00;100623.56;5566886;32;34954;-72
2023/01/15 03:34:52;;;;;;;;;;;;;;;1.17;100.00;100619.28;5566750;32;34209;-73
2023/01/15 03:38:00;;;;;;;;;;;;;;;1.05;100.00;100604.44;5566565;32;34420;-72
2023/01/15 03:41:28;;;;;;;;;;;;;;;1.15;100.00;100612.50;5553731;32;32959;-73
2023/01/15 03:44:46;;;;;;;;;;;;;;;1.21;100.00;100615.50;5566468;32;34128;-72
2023/01/15 03:48:16;;;;;;;;;;;;;;;1.27;100.00;100606.44;5553886;32;34321;-72
2023/01/15 03:51:25;;;;;;;;;;;;;;;1.13;100.00;100602.13;5566394;32;34700;-72
2023/01/15 03:54:43;;;;;;;;;;;;;;;1.13;100.00;100604.75;5566482;32;34332;-72
2023/01/15 03:57:57;;;;;;;;;;;;;;;1.26;100.00;100605.59;5566355;32;33830;-73
2023/01/15 04:01:09;;;;;;;;;;;;;;;1.31;100.00;100608.72;5555126;32;34476;-72
2023/01/15 04:04:17;;;;;;;;;;;;;;;1.45;100.00;100618.28;5568968;32;34574;-72
2023/01/15 04:07:26;;;;;;;;;;;;;;;1.33;100.00;100615.63;5554521;32;34105;-72
2023/01/15 04:10:49;;;;;;;;;;;;;;;1.43;100.00;100614.09;5556042;32;34106;-72
2023/01/15 04:13:57;;;;;;;;;;;;;;;1.51;100.00;100617.84;5568762;32;34041;-72
2023/01/15 04:17:07;;;;;;;;;;;;;;;1.50;100.00;100610.94;5568847;32;34226;-72
2023/01/15 04:20:12;;;;;;;;;;;;;;;1.46;100.00;100601.62;5555420;32;34255;-72
2023/01/15 04:23:20;;;;;;;;;;;;;;;1.43;100.00;100604.47;5568721;32;34378;-72
2023/01/15 04:26:27;;;;;;;;;;;;;;;1.45;100.00;100605.22;5568857;32;34838;-73
2023/01/15 04:29:35;;;;;;;;;;;;;;;1.41;100.00;100601.09;5568714;32;34350;-72
2023/01/15 04:32:44;;;;;;;;;;;;;;;1.33;100.00;100594.72;5568738;32;34300;-72
2023/01/15 04:35:52;;;;;;;;;;;;;;;1.37;100.00;100581.34;5542080;32;33068;-73
2023/01/15 04:39:00;;;;;;;;;;;;;;;1.28;100.00;100577.59;5568726;32;34166;-73
2023/01/15 04:45:38;;;;;;;;;;;;;;;1.20;100.00;100576.44;5568557;32;34254;-72
2023/01/15 04:48:47;;;;;;;;;;;;;;;1.31;100.00;100589.59;5568640;32;34679;-72
2023/01/15 04:51:54;;;;;;;;;;;;;;;1.37;100.00;100589.19;5555556;32;33740;-73
2023/01/15 04:55:03;;;;;;;;;;;;;;;1.36;100.00;100581.44;5568603;32;34248;-72
2023/01/15 04:58:09;;;;;;;;;;;;;;;1.49;100.00;100596.22;5568504;32;34753;-72
2023/01/15 05:01:16;;;;;;;;;;;;;;;1.44;100.00;100595.69;5568545;32;33890;-73
2023/01/15 05:04:26;;;;;;;;;;;;;;;1.50;100.00;100592.63;5567214;32;34623;-72
2023/01/15 05:07:36;;;;;;;;;;;;;;;1.49;100.00;100593.59;5568422;32;34860;-74
2023/01/15 05:10:45;;;;;;;;;;;;;;;1.35;100.00;100591.09;5568200;32;34982;-73
2023/01/15 05:13:53;;;;;;;;;;;;;;;1.31;100.00;100579.97;5554716;32;34254;-73
2023/01/15 05:17:00;;;;;;;;;;;;;;;1.33;100.00;100574.66;5568361;32;33906;-72
2023/01/15 05:20:08;;;;;;;;;;;;;;;1.44;100.00;100566.09;5567934;32;35054;-72
2023/01/15 05:23:15;;;;;;;;;;;;;;;1.47;100.00;100551.03;5568274;32;34033;-72
2023/01/15 05:26:24;;;;;;;;;;;;;;;1.54;100.00;100565.38;5567627;32;34731;-72
2023/01/15 05:29:32;;;;;;;;;;;;;;;1.53;100.00;100563.69;5541678;32;34501;-72
2023/01/15 05:32:42;;;;;;;;;;;;;;;1.43;100.00;100544.34;5568180;32;34730;-72
2023/01/15 05:35:48;;;;;;;;;;;;;;;1.61;100.00;100547.44;5568238;32;34854;-73
2023/01/15 05:38:56;;;;;;;;;;;;;;;1.46;100.00;100538.87;5554694;32;34176;-72
2023/01/15 05:42:03;;;;;;;;;;;;;;;1.41;100.00;100537.53;5541624;32;33015;-72
2023/01/15 05:45:10;;;;;;;;;;;;;;;1.47;100.00;100531.87;5566963;32;34569;-72
2023/01/15 05:48:17;;;;;;;;;;;;;;;1.49;100.00;100535.25;5553861;32;33030;-72
2023/01/15 05:51:26;;;;;;;;;;;;;;;1.49;100.00;100525.63;5567171;32;33805;-72
2023/01/15 05:54:35;;;;;;;;;;;;;;;1.48;100.00;100518.72;5554747;32;34243;-72
2023/01/15 05:57:48;;;;;;;;;;;;;;;1.53;100.00;100515.78;5567593;32;35008;-73
2023/01/15 06:00:59;;;;;;;;;;;;;;;1.52;100.00;100508.88;5567731;32;34334;-72
2023/01/15 06:04:06;;;;;;;;;;;;;;;1.63;100.00;100506.34;5554573;32;34723;-72
2023/01/15 06:07:13;;;;;;;;;;;;;;;1.60;100.00;100504.78;5567835;32;34471;-72
2023/01/15 06:10:23;;;;;;;;;;;;;;;1.65;100.00;100507.91;5541649;32;33498;-71
2023/01/15 06:13:31;;;;;;;;;;;;;;;1.67;100.00;100507.81;5567826;32;34897;-72
2023/01/15 06:16:39;;;;;;;;;;;;;;;1.79;100.00;100506.97;5567120;32;34911;-72
2023/01/15 06:19:47;;;;;;;;;;;;;;;1.76;100.00;100509.78;5567636;32;35453;-71
2023/01/15 06:22:56;;;;;;;;;;;;;;;1.89;100.00;100504.53;5553263;32;34220;-71
2023/01/15 06:26:05;;;;;;;;;;;;;;;1.89;100.00;100502.72;5554296;32;34969;-71
2023/01/15 06:29:16;;;;;;;;;;;;;;;1.89;100.00;100500.09;5553393;32;34333;-73
2023/01/15 06:32:23;;;;;;;;;;;;;;;1.81;100.00;100507.66;5553384;32;33432;-72
2023/01/15 06:35:29;;;;;;;;;;;;;;;1.84;100.00;100507.44;5567628;32;34702;-72
2023/01/15 06:38:41;;;;;;;;;;;;;;;1.87;100.00;100499.38;5567160;32;34988;-72
2023/01/15 06:48:42;;;;;;;;;;;;;;;1.95;100.00;100491.81;5567225;32;34798;-72
2023/01/15 06:51:50;;;;;;;;;;;;;;;2.01;100.00;100486.16;5567268;32;34566;-72
2023/01/15 06:54:58;;;;;;;;;;;;;;;2.11;100.00;100489.78;5567436;32;34319;-72
2023/01/15 06:58:03;;;;;;;;;;;;;;;2.12;100.00;100483.59;5566132;32;32488;-72
2023/01/15 07:01:12;;;;;;;;;;;;;;;2.23;100.00;100482.78;5566526;32;35481;-72
2023/01/15 07:04:19;;;;;;;;;;;;;;;2.30;100.00;100485.81;5567216;32;33988;-72
2023/01/15 07:07:28;;;;;;;;;;;;;;;2.25;100.00;100490.53;5560453;32;34903;-71
2023/01/15 07:10:38;;;;;;;;;;;;;;;2.29;100.00;100495.44;5566514;32;34698;-72
2023/01/15 07:13:48;;;;;;;;;;;;;;;2.39;100.00;100501.69;5565632;32;34111;-74
2023/01/15 07:16:55;;;;;;;;;;;;;;;2.40;100.00;100489.41;5566743;32;34351;-72
2023/01/15 07:20:03;;;;;;;;;;;;;;;2.40;100.00;100489.41;5566871;32;35258;-73
2023/01/15 07:23:09;;;;;;;;;;;;;;;2.35;100.00;100496.78;5566447;32;34697;-72
2023/01/15 07:26:15;;;;;;;;;;;;;;;2.42;100.00;100475.25;5551659;32;34277;-71
2023/01/15 07:29:20;;;;;;;;;;;;;;;2.55;100.00;100477.81;5566604;32;34062;-72
2023/01/15 07:32:26;;;;;;;;;;;;;;;2.50;100.00;100480.78;5553404;32;34275;-72
2023/01/15 07:35:35;;;;;;;;;;;;;;;2.47;100.00;100478.38;5567945;32;34293;-72
2023/01/15 07:38:44;;;;;;;;;;;;;;;2.53;100.00;100477.91;5569304;32;34414;-73
2023/01/15 07:52:06;;;;;;;;;;;;;;;2.63;100.00;100459.75;5568545;32;34192;-72
2023/01/15 07:55:12;;;;;;;;;;;;;;;2.77;100.00;100467.37;5567381;32;34447;-72
2023/01/15 07:58:18;;;;;;;;;;;;;;;2.78;100.00;100461.19;5554435;32;34333;-72
2023/01/15 08:01:29;;;;;;;;;;;;;;;2.70;100.00;100460.13;5556078;32;34344;-72
2023/01/15 08:04:36;;;;;;;;;;;;;;;2.78;100.00;100460.37;5542343;32;34130;-72
2023/01/15 08:07:43;;;;;;;;;;;;;;;2.77;100.00;100456.06;5568771;32;34740;-71
2023/01/15 08:17:45;;;;;;;;;;;;;;;2.94;100.00;100453.84;5568556;32;34813;-72
2023/01/15 08:20:53;;;;;;;;;;;;;;;2.95;100.00;100444.22;5555587;32;34279;-72
2023/01/15 08:23:59;;;;;;;;;;;;;;;3.02;100.00;100437.53;5542134;32;34619;-72
2023/01/15 08:27:06;;;;;;;;;;;;;;;3.11;100.00;100442.06;5568594;32;34394;-72
2023/01/15 08:30:22;;;;;;;;;;;;;;;3.14;100.00;100444.47;5555794;32;34312;-72
2023/01/15 08:33:32;;;;;;;;;;;;;;;3.23;100.00;100442.91;5554558;32;33981;-72
2023/01/15 08:36:39;;;;;;;;;;;;;;;3.39;100.00;100438.13;5567691;32;34206;-73
2023/01/15 08:39:45;;;;;;;;;;;;;;;3.34;100.00;100454.22;5554867;32;34910;-73
2023/01/15 08:42:55;;;;;;;;;;;;;;;3.30;100.00;100446.69;5553677;32;34186;-73
2023/01/15 08:46:02;;;;;;;;;;;;;;;3.27;100.00;100447.78;5567513;32;34235;-72
2023/01/15 08:49:09;;;;;;;;;;;;;;;3.27;100.00;100445.16;5568014;32;34504;-72
2023/01/15 08:52:16;;;;;;;;;;;;;;;3.47;100.00;100446.22;5568225;32;34932;-72
2023/01/15 08:55:27;;;;;;;;;;;;;;;3.53;100.00;100443.13;5542080;32;34478;-72
2023/01/15 08:58:56;;;;;;;;;;;;;;;3.68;100.00;100439.25;5567812;32;34088;-72
2023/01/15 09:02:21;;;;;;;;;;;;;;;3.68;100.00;100431.41;5566042;32;34230;-72
2023/01/15 09:05:30;;;;;;;;;;;;;;;3.79;100.00;100436.63;5541796;32;33274;-73
2023/01/15 09:08:36;;;;;;;;;;;;;;;4.01;100.00;100434.91;5554774;32;34474;-73
2023/01/15 09:11:43;;;;;;;;;;;;;;;4.05;100.00;100420.56;5567930;32;34218;-73
2023/01/15 09:14:55;;;;;;;;;;;;;;;3.87;100.00;100431.59;5567946;32;34234;-73
2023/01/15 09:18:10;;;;;;;;;;;;;;;3.94;100.00;100417.03;5554422;32;34226;-73
2023/01/15 09:21:16;;;;;;;;;;;;;;;3.83;100.00;100419.66;5553471;32;33812;-73
2023/01/15 09:24:22;;;;;;;;;;;;;;;4.00;100.00;100414.84;5541049;32;33128;-73
2023/01/15 09:27:29;;;;;;;;;;;;;;;4.01;100.00;100403.41;5540927;32;33176;-72
2023/01/15 09:30:35;;;;;;;;;;;;;;;4.04;100.00;100397.91;5554287;32;34302;-73
2023/01/15 09:33:45;;;;;;;;;;;;;;;4.04;100.00;100392.66;5568016;32;34899;-73
2023/01/15 09:36:52;;;;;;;;;;;;;;;4.30;100.00;100394.81;5554490;32;34245;-72
2023/01/15 09:40:01;;;;;;;;;;;;;;;4.21;100.00;100392.91;5567512;32;34134;-72
2023/01/15 09:43:18;;;;;;;;;;;;;;;4.21;100.00;100381.59;5567238;32;34333;-73
2023/01/15 09:46:34;;;;;;;;;;;;;;;4.23;100.00;100363.91;5567098;32;32830;-72
2023/01/15 09:49:49;;;;;;;;;;;;;;;4.29;100.00;100351.12;5554528;32;33054;-72
2023/01/15 09:53:02;;;;;;;;;;;;;;;4.37;100.00;100358.34;5567730;32;34235;-72
2023/01/15 09:56:13;;;;;;;;;;;;;;;4.49;100.00;100338.09;5567347;32;34261;-72
2023/01/15 09:59:45;;;;;;;;;;;;;;;4.47;100.00;100329.50;5566289;32;34496;-72
2023/01/15 10:02:54;;;;;;;;;;;;;;;4.55;100.00;100332.34;5566169;31;34467;-71
2023/01/15 10:06:07;;;;;;;;;;;;;;;4.45;100.00;100334.06;5566638;32;34973;-73
2023/01/15 10:09:21;;;;;;;;;;;;;;;4.70;100.00;100323.12;5566583;32;33860;-72
2023/01/15 10:12:34;;;;;;;;;;;;;;;4.80;100.00;100311.69;5566120;32;34317;-72
2023/01/15 10:15:43;;;;;;;;;;;;;;;4.86;100.00;100309.50;5567307;32;34555;-72
2023/01/15 10:18:52;;;;;;;;;;;;;;;5.01;100.00;100303.75;5567352;32;34184;-72
2023/01/15 10:21:57;;;;;;;;;;;;;;;5.13;100.00;100293.97;5566948;32;35742;-72
2023/01/15 10:25:08;;;;;;;;;;;;;;;5.25;100.00;100291.06;5567153;32;34327;-72
2023/01/15 10:28:17;;;;;;;;;;;;;;;5.04;100.00;100292.09;5566837;32;33027;-72
2023/01/15 10:31:26;;;;;;;;;;;;;;;5.02;100.00;100288.81;5567615;32;35117;-73
2023/01/15 10:34:58;;;;;;;;;;;;;;;5.01;100.00;100273.97;5566584;32;33699;-75
2023/01/15 10:38:22;;;;;;;;;;;;;;;4.95;100.00;100262.19;5567232;32;34174;-73
2023/01/15 10:41:46;;;;;;;;;;;;;;;5.11;100.00;100266.94;5566996;32;34898;-72
2023/01/15 10:44:59;;;;;;;;;;;;;;;5.31;100.00;100268.66;5566326;32;34181;-73
2023/01/15 10:48:10;;;;;;;;;;;;;;;5.66;100.00;100254.97;5566321;32;34541;-72
2023/01/15 10:51:21;;;;;;;;;;;;;;;5.92;100.00;100239.41;5567262;32;34398;-73
2023/01/15 10:54:31;;;;;;;;;;;;;;;5.91;100.00;100241.22;5566975;32;34617;-73
2023/01/15 10:57:56;;;;;;;;;;;;;;;5.63;100.00;100232.38;5567481;32;34399;-73
2023/01/15 11:01:15;;;;;;;;;;;;;;;5.50;100.00;100223.94;5567630;32;34916;-73
2023/01/15 11:04:26;;;;;;;;;;;;;;;5.47;100.00;100218.94;5566320;32;34268;-72
2023/01/15 11:07:37;;;;;;;;;;;;;;;5.69;100.00;100197.59;5566571;32;34835;-72
2023/01/15 11:11:13;;;;;;;;;;;;;;;6.04;100.00;100199.63;5566546;32;33998;-72
2023/01/15 11:21:15;;;;;;;;;;;;;;;5.96;100.00;100191.59;5566881;32;33553;-73
2023/01/15 11:24:20;;;;;;;;;;;;;;;5.73;100.00;100182.34;5565912;32;34389;-72
2023/01/15 11:27:27;;;;;;;;;;;;;;;6.00;100.00;100169.28;5567079;32;34973;-72
2023/01/15 11:30:52;;;;;;;;;;;;;;;6.28;100.00;100172.78;5566803;32;33975;-72
2023/01/15 11:34:01;;;;;;;;;;;;;;;6.21;100.00;100166.44;5566757;32;33891;-71
2023/01/15 11:37:09;;;;;;;;;;;;;;;6.34;100.00;100161.66;5566672;32;34253;-72
2023/01/15 11:40:15;;;;;;;;;;;;;;;6.42;100.00;100153.88;5566617;32;34067;-72
2023/01/15 11:53:46;;;;;;;;;;;;;;;6.90;100.00;100102.63;5565682;32;33993;-72
2023/01/15 11:56:55;;;;;;;;;;;;;;;6.53;100.00;100100.12;5566288;32;34829;-73
2023/01/15 12:00:06;;;;;;;;;;;;;;;6.56;100.00;100099.81;5565390;32;33870;-75
2023/01/15 12:03:21;;;;;;;;;;;;;;;6.45;100.00;100087.69;5565072;32;33895;-73
2023/01/15 12:06:27;;;;;;;;;;;;;;;6.75;100.00;100086.50;5566002;32;34269;-71
2023/01/15 12:09:39;;;;;;;;;;;;;;;6.74;100.00;100073.47;5566095;32;34566;-71
2023/01/15 12:13:05;;;;;;;;;;;;;;;6.62;100.00;100066.78;5557994;32;34808;-71
2023/01/15 12:16:13;;;;;;;;;;;;;;;7.15;100.00;100072.84;5559296;32;34901;-72
2023/01/15 12:19:30;;;;;;;;;;;;;;;7.17;100.00;100080.59;5552025;32;34349;-72
2023/01/15 12:22:56;;;;;;;;;;;;;;;7.05;100.00;100079.19;5567472;32;34240;-72
2023/01/15 12:26:21;;;;;;;;;;;;;;;6.90;100.00;100085.00;5554372;32;32931;-73
2023/01/15 12:29:30;;;;;;;;;;;;;;;6.65;100.00;100075.19;5568693;32;33875;-73
2023/01/15 12:32:40;;;;;;;;;;;;;;;6.53;100.00;100071.94;5542120;32;32307;-72
2023/01/15 12:35:55;;;;;;;;;;;;;;;6.73;100.00;100058.66;5555101;32;34224;-72
2023/01/15 12:39:00;;;;;;;;;;;;;;;6.95;100.00;100063.44;5568885;32;34742;-72
2023/01/15 12:45:43;;;;;;;;;;;;;;;6.95;100.00;100060.81;5568638;32;34533;-72
2023/01/15 12:49:12;;;;;;;;;;;;;;;6.76;100.00;100058.34;5542050;32;33706;-72
2023/01/15 12:52:23;;;;;;;;;;;;;;;7.09;100.00;100059.44;5560873;32;34362;-72
2023/01/15 12:55:36;;;;;;;;;;;;;;;7.05;100.00;100050.19;5568634;32;34241;-72
2023/01/15 12:58:52;;;;;;;;;;;;;;;7.31;100.00;100054.47;5568444;32;34340;-72
2023/01/15 13:02:08;;;;;;;;;;;;;;;7.07;100.00;100042.97;5554380;32;34320;-72
2023/01/15 13:05:27;;;;;;;;;;;;;;;7.11;100.00;100033.75;5568328;32;34780;-72
2023/01/15 13:08:37;;;;;;;;;;;;;;;7.04;100.00;100032.69;5553971;32;34448;-72
2023/01/15 13:11:42;;;;;;;;;;;;;;;6.95;100.00;100035.28;5568449;32;34867;-72
2023/01/15 13:14:49;;;;;;;;;;;;;;;7.35;100.00;100029.47;5554496;32;34215;-72
2023/01/15 13:18:11;;;;;;;;;;;;;;;7.22;100.00;100030.84;5568233;32;33987;-72
2023/01/15 13:21:19;;;;;;;;;;;;;;;7.10;100.00;100032.91;5552575;32;33391;-71
2023/01/15 13:24:28;;;;;;;;;;;;;;;6.93;100.00;100020.56;5554818;32;34690;-74
2023/01/15 13:27:54;;;;;;;;;;;;;;;6.79;100.00;100021.94;5567974;32;34846;-72
2023/01/15 13:31:11;;;;;;;;;;;;;;;6.80;100.00;100015.69;5554351;32;35008;-71
2023/01/15 13:34:25;;;;;;;;;;;;;;;6.88;100.00;99996.47;5554463;32;34213;-71
2023/01/15 13:37:46;;;;;;;;;;;;;;;7.10;100.00;100005.72;5541146;32;33160;-71
2023/01/15 13:40:54;;;;;;;;;;;;;;;7.29;100.00;100008.97;5553974;32;33318;-72
2023/01/15 13:44:02;;;;;;;;;;;;;;;7.48;100.00;99999.16;5567929;32;34347;-71
2023/01/15 13:47:12;;;;;;;;;;;;;;;7.39;100.00;100006.22;5567280;32;34325;-72
2023/01/15 13:50:26;;;;;;;;;;;;;;;7.47;100.00;99995.69;5566861;32;33979;-72
2023/01/15 13:53:46;;;;;;;;;;;;;;;7.28;100.00;99990.66;5567992;32;34974;-72
2023/01/15 13:56:53;;;;;;;;;;;;;;;7.35;100.00;99995.16;5567954;32;33716;-72
2023/01/15 14:00:00;;;;;;;;;;;;;;;7.32;100.00;99992.81;5566809;32;34712;-72
2023/01/15 14:03:25;;;;;;;;;;;;;;;7.48;100.00;99980.69;5567140;32;34297;-73
2023/01/15 14:06:37;;;;;;;;;;;;;;;7.43;100.00;99974.09;5554121;32;35357;-72
2023/01/15 14:09:48;;;;;;;;;;;;;;;7.24;100.00;99982.22;5567631;32;34927;-73
2023/01/15 14:12:55;;;;;;;;;;;;;;;7.14;100.00;99984.13;5566824;32;32830;-71
2023/01/15 14:16:13;;;;;;;;;;;;;;;7.13;100.00;99982.47;5567531;32;35021;-72
2023/01/15 14:19:34;;;;;;;;;;;;;;;7.11;100.00;99973.91;5566379;32;34339;-72
2023/01/15 14:22:49;;;;;;;;;;;;;;;7.15;100.00;99972.59;5566509;32;32760;-72
2023/01/15 14:26:04;;;;;;;;;;;;;;;7.10;100.00;99974.06;5566587;32;33295;-71
2023/01/15 14:29:15;;;;;;;;;;;;;;;7.06;100.00;99970.91;5557737;32;34985;-71
2023/01/15 14:32:28;;;;;;;;;;;;;;;7.03;100.00;99963.28;5566668;32;34356;-71
2023/01/15 14:35:42;;;;;;;;;;;;;;;7.04;100.00;99964.94;5567368;32;34247;-71
2023/01/15 14:38:49;;;;;;;;;;;;;;;7.09;100.00;99961.84;5567256;32;35232;-72
2023/01/15 14:45:32;;;;;;;;;;;;;;;7.02;100.00;99953.72;5552075;32;33320;-72
2023/01/15 14:48:38;;;;;;;;;;;;;;;6.99;100.00;99952.22;5553793;32;34244;-72
2023/01/15 14:51:48;;;;;;;;;;;;;;;6.97;100.00;99943.62;5567280;32;34526;-72
2023/01/15 14:54:57;;;;;;;;;;;;;;;6.97;100.00;99942.84;5553195;32;33943;-72
2023/01/15 14:58:14;;;;;;;;;;;;;;;6.97;100.00;99950.75;5552321;32;33706;-72
2023/01/15 15:01:20;;;;;;;;;;;;;;;6.95;100.00;99950.06;5566635;32;34041;-72
2023/01/15 15:04:32;;;;;;;;;;;;;;;6.95;100.00;99944.78;5553577;32;34808;-72
2023/01/15 15:07:43;;;;;;;;;;;;;;;6.88;100.00;99947.19;5552425;32;35606;-72
2023/01/15 15:10:55;;;;;;;;;;;;;;;6.92;100.00;99945.09;5552666;32;32687;-72
2023/01/15 15:14:03;;;;;;;;;;;;;;;6.86;100.00;99938.63;5552993;32;32673;-72
2023/01/15 15:17:24;;;;;;;;;;;;;;;6.84;100.00;99942.41;5565424;32;34432;-72
2023/01/15 15:20:36;;;;;;;;;;;;;;;6.84;100.00;99926.56;5566597;32;34954;-72
2023/01/15 15:23:47;;;;;;;;;;;;;;;6.85;100.00;99928.22;5564980;32;34282;-72
2023/01/15 15:26:54;;;;;;;;;;;;;;;6.84;100.00;99916.84;5566025;32;33902;-72
2023/01/15 15:30:05;;;;;;;;;;;;;;;6.81;100.00;99919.81;5565854;32;33753;-72
2023/01/15 15:33:21;;;;;;;;;;;;;;;6.80;100.00;99915.53;5566003;32;34716;-72
2023/01/15 15:36:31;;;;;;;;;;;;;;;6.77;100.00;99909.75;5565447;32;34885;-72
2023/01/15 15:39:48;;;;;;;;;;;;;;;6.82;100.00;99902.19;5552000;32;32894;-72
2023/01/15 15:49:54;;;;;;;;;;;;;;;6.76;100.00;99894.91;5551525;32;32819;-73
2023/01/15 15:52:58;;;;;;;;;;;;;;;6.76;100.00;99900.16;5566362;32;34163;-72
2023/01/15 15:56:02;;;;;;;;;;;;;;;6.75;100.00;99896.69;5553374;32;35027;-72
2023/01/15 15:59:06;;;;;;;;;;;;;;;6.77;100.00;99893.91;5554842;32;33241;-72
2023/01/15 16:02:14;;;;;;;;;;;;;;;6.75;100.00;99895.88;5568310;32;34398;-72
2023/01/15 16:05:22;;;;;;;;;;;;;;;6.69;100.00;99896.47;5568876;32;34234;-72
2023/01/15 16:08:29;;;;;;;;;;;;;;;6.77;100.00;99902.66;5554608;32;34454;-72
2023/01/15 16:11:37;;;;;;;;;;;;;;;6.79;100.00;99908.59;5567414;32;34253;-72
2023/01/15 16:14:44;;;;;;;;;;;;;;;6.76;100.00;99901.00;5554859;32;35853;-72
2023/01/15 16:17:52;;;;;;;;;;;;;;;6.80;100.00;99896.22;5542798;32;33255;-71
2023/01/15 16:21:00;;;;;;;;;;;;;;;6.79;100.00;99889.31;5553880;32;33419;-71
2023/01/15 16:24:21;;;;;;;;;;;;;;;6.78;100.00;99890.28;5554611;32;33244;-72
2023/01/15 16:27:34;;;;;;;;;;;;;;;6.78;100.00;99900.81;5553232;32;34939;-72
2023/01/15 16:30:45;;;;;;;;;;;;;;;6.80;100.00;99902.34;5555677;32;34302;-72
2023/01/15 16:33:53;;;;;;;;;;;;;;;6.77;100.00;99893.91;5555523;32;34409;-72
2023/01/15 16:37:02;;;;;;;;;;;;;;;6.75;100.00;99896.69;5568838;32;34986;-71
2023/01/15 16:40:15;;;;;;;;;;;;;;;6.74;100.00;99896.84;5543322;32;34812;-71
2023/01/15 16:43:25;;;;;;;;;;;;;;;6.77;100.00;99894.75;5555413;32;34035;-72
2023/01/15 16:46:50;;;;;;;;;;;;;;;6.71;100.00;99895.34;5554914;32;34286;-72
2023/01/15 16:50:15;;;;;;;;;;;;;;;6.60;100.00;99892.97;5554387;32;34157;-72
2023/01/15 16:53:31;;;;;;;;;;;;;;;6.59;100.00;99893.13;5566707;32;34625;-72
2023/01/15 16:56:43;;;;;;;;;;;;;;;6.52;100.00;99890.28;5553958;32;33179;-72
2023/01/15 16:59:55;;;;;;;;;;;;;;;6.57;100.00;99895.94;5554642;32;33680;-72
2023/01/15 17:03:00;;;;;;;;;;;;;;;6.61;100.00;99889.34;5568508;32;34309;-72
2023/01/15 17:06:15;;;;;;;;;;;;;;;6.60;100.00;99890.34;5567481;32;34186;-72
2023/01/15 17:09:21;;;;;;;;;;;;;;;6.63;100.00;99886.56;5553799;32;33516;-72
2023/01/15 17:12:33;;;;;;;;;;;;;;;6.53;100.00;99882.22;5568377;32;34143;-72
2023/01/15 17:15:42;;;;;;;;;;;;;;;6.44;100.00;99890.19;5554939;32;34240;-72
2023/01/15 17:18:50;;;;;;;;;;;;;;;6.29;100.00;99879.41;5567653;32;34968;-73
2023/01/15 17:21:59;;;;;;;;;;;;;;;6.14;100.00;99877.47;5541857;32;34196;-73
2023/01/15 17:25:21;;;;;;;;;;;;;;;6.00;100.00;99865.66;5568393;32;34135;-74
2023/01/15 17:28:28;;;;;;;;;;;;;;;5.90;100.00;99867.53;5568073;31;34391;-75